sensor_id;sensor_type;location;lat;lon;timestamp;pressure;altitude;pressure_sealevel;temperature;humidity
8653;BME280;4364;52.426;9.424;2023-06-26T00:02:13;100902.94;;;21.66;75.22
8653;BME280;4364;52.426;9.424;2023-06-26T00:04:42;100897.06;;;21.55;75.71
8653;BME280;4364;52.426;9.424;2023-06-26T00:07:08;100898.56;;;21.53;75.77
8653;BME280;4364;52.426;9.424;2023-06-26T00:09:36;100891.59;;;21.46;75.81
8653;BME280;4364;52.426;9.424;2023-06-26T00:12:02;100893.47;;;21.42;76.22
8653;BME280;4364;52.426;9.424;2023-06-26T00:14:29;100881.06;;;21.49;75.50
8653;BME280;4364;52.426;9.424;2023-06-26T00:16:55;100886.81;;;21.56;74.88
8653;BME280;4364;52.426;9.424;2023-06-26T00:19:22;100885.16;;;21.42;74.91
8653;BME280;4364;52.426;9.424;2023-06-26T00:21:48;100872.03;;;21.39;75.34
8653;BME280;4364;52.426;9.424;2023-06-26T00:24:15;100872.72;;;21.36;74.93
8653;BME280;4364;52.426;9.424;2023-06-26T00:26:42;100873.66;;;21.40;74.84
8653;BME280;4364;52.426;9.424;2023-06-26T00:29:09;100868.69;;;21.34;74.85
8653;BME280;4364;52.426;9.424;2023-06-26T00:31:36;100874.56;;;21.32;75.32
8653;BME280;4364;52.426;9.424;2023-06-26T00:34:02;100873.19;;;21.14;75.60
8653;BME280;4364;52.426;9.424;2023-06-26T00:36:29;100875.94;;;21.14;76.13
8653;BME280;4364;52.426;9.424;2023-06-26T00:38:56;100869.25;;;21.15;76.03
8653;BME280;4364;52.426;9.424;2023-06-26T00:41:22;100874.66;;;21.11;76.22
8653;BME280;4364;52.426;9.424;2023-06-26T00:43:49;100875.00;;;21.09;76.25
8653;BME280;4364;52.426;9.424;2023-06-26T00:46:16;100877.31;;;21.07;76.82
8653;BME280;4364;52.426;9.424;2023-06-26T00:48:45;100871.91;;;21.11;76.58
8653;BME280;4364;52.426;9.424;2023-06-26T00:51:12;100873.06;;;21.10;76.05
8653;BME280;4364;52.426;9.424;2023-06-26T00:53:40;100867.16;;;21.12;76.31
8653;BME280;4364;52.426;9.424;2023-06-26T00:56:07;100862.59;;;21.03;76.96
8653;BME280;4364;52.426;9.424;2023-06-26T00:58:35;100856.56;;;20.89;77.82
8653;BME280;4364;52.426;9.424;2023-06-26T01:01:02;100858.28;;;20.81;78.57
8653;BME280;4364;52.426;9.424;2023-06-26T01:03:29;100856.56;;;20.77;79.31
8653;BME280;4364;52.426;9.424;2023-06-26T01:05:57;100849.88;;;20.78;79.75
8653;BME280;4364;52.426;9.424;2023-06-26T01:08:26;100850.09;;;20.72;79.80
8653;BME280;4364;52.426;9.424;2023-06-26T01:10:53;100844.00;;;20.79;78.93
8653;BME280;4364;52.426;9.424;2023-06-26T01:13:20;100838.69;;;20.86;77.71
8653;BME280;4364;52.426;9.424;2023-06-26T01:15:47;100841.91;;;20.76;77.93
8653;BME280;4364;52.426;9.424;2023-06-26T01:18:15;100841.34;;;20.70;77.91
8653;BME280;4364;52.426;9.424;2023-06-26T01:20:43;100840.75;;;20.65;78.03
8653;BME280;4364;52.426;9.424;2023-06-26T01:23:29;100840.88;;;20.68;77.90
8653;BME280;4364;52.426;9.424;2023-06-26T01:26:19;100833.13;;;20.62;77.60
8653;BME280;4364;52.426;9.424;2023-06-26T01:28:49;100832.47;;;20.65;77.70
8653;BME280;4364;52.426;9.424;2023-06-26T01:31:17;100829.88;;;20.60;77.56
8653;BME280;4364;52.426;9.424;2023-06-26T01:33:46;100824.84;;;20.62;77.71
8653;BME280;4364;52.426;9.424;2023-06-26T01:36:13;100816.03;;;20.68;77.46
8653;BME280;4364;52.426;9.424;2023-06-26T01:38:39;100821.31;;;20.73;76.68
8653;BME280;4364;52.426;9.424;2023-06-26T01:41:06;100827.75;;;20.65;76.71
8653;BME280;4364;52.426;9.424;2023-06-26T01:44:01;100820.44;;;20.61;76.82
8653;BME280;4364;52.426;9.424;2023-06-26T01:49:18;100820.88;;;20.71;75.68
8653;BME280;4364;52.426;9.424;2023-06-26T01:52:06;100807.38;;;20.70;74.81
8653;BME280;4364;52.426;9.424;2023-06-26T01:54:42;100802.75;;;20.62;74.73
8653;BME280;4364;52.426;9.424;2023-06-26T01:57:09;100805.19;;;20.63;75.20
8653;BME280;4364;52.426;9.424;2023-06-26T01:59:38;100805.19;;;20.63;74.72
8653;BME280;4364;52.426;9.424;2023-06-26T02:02:07;100812.16;;;20.61;74.92
8653;BME280;4364;52.426;9.424;2023-06-26T02:04:36;100800.91;;;20.66;74.58
8653;BME280;4364;52.426;9.424;2023-06-26T02:07:04;100799.31;;;20.65;73.85
8653;BME280;4364;52.426;9.424;2023-06-26T02:09:31;100797.34;;;20.65;73.97
8653;BME280;4364;52.426;9.424;2023-06-26T02:11:58;100790.06;;;20.61;74.25
8653;BME280;4364;52.426;9.424;2023-06-26T02:14:24;100790.56;;;20.63;73.67
8653;BME280;4364;52.426;9.424;2023-06-26T02:16:51;100789.25;;;20.60;73.54
8653;BME280;4364;52.426;9.424;2023-06-26T02:19:17;100781.53;;;20.53;73.82
8653;BME280;4364;52.426;9.424;2023-06-26T02:21:50;100785.34;;;20.61;73.96
8653;BME280;4364;52.426;9.424;2023-06-26T02:24:17;100781.78;;;20.61;73.96
8653;BME280;4364;52.426;9.424;2023-06-26T02:26:44;100777.38;;;20.60;73.75
8653;BME280;4364;52.426;9.424;2023-06-26T02:29:11;100778.44;;;20.55;73.81
8653;BME280;4364;52.426;9.424;2023-06-26T02:31:39;100775.19;;;20.53;73.64
8653;BME280;4364;52.426;9.424;2023-06-26T02:34:06;100769.09;;;20.60;72.77
8653;BME280;4364;52.426;9.424;2023-06-26T02:36:33;100781.09;;;20.51;72.65
8653;BME280;4364;52.426;9.424;2023-06-26T02:39:03;100774.28;;;20.49;72.91
8653;BME280;4364;52.426;9.424;2023-06-26T02:41:32;100773.94;;;20.38;72.82
8653;BME280;4364;52.426;9.424;2023-06-26T02:43:59;100772.63;;;20.35;73.05
8653;BME280;4364;52.426;9.424;2023-06-26T02:46:26;100771.00;;;20.34;73.40
8653;BME280;4364;52.426;9.424;2023-06-26T02:48:53;100767.69;;;20.29;73.78
8653;BME280;4364;52.426;9.424;2023-06-26T02:51:21;100756.97;;;20.27;73.75
8653;BME280;4364;52.426;9.424;2023-06-26T02:53:51;100762.03;;;20.25;74.13
8653;BME280;4364;52.426;9.424;2023-06-26T02:56:17;100764.34;;;20.23;73.96
8653;BME280;4364;52.426;9.424;2023-06-26T02:58:44;100749.69;;;20.23;73.84
8653;BME280;4364;52.426;9.424;2023-06-26T03:01:11;100755.72;;;20.25;73.84
8653;BME280;4364;52.426;9.424;2023-06-26T03:03:41;100749.03;;;20.26;74.05
8653;BME280;4364;52.426;9.424;2023-06-26T03:06:13;100748.81;;;20.31;73.92
8653;BME280;4364;52.426;9.424;2023-06-26T03:08:41;100740.19;;;20.32;73.71
8653;BME280;4364;52.426;9.424;2023-06-26T03:11:08;100740.41;;;20.27;73.13
8653;BME280;4364;52.426;9.424;2023-06-26T03:13:36;100742.59;;;20.22;73.91
8653;BME280;4364;52.426;9.424;2023-06-26T03:16:04;100743.72;;;20.21;73.87
8653;BME280;4364;52.426;9.424;2023-06-26T03:18:30;100744.41;;;20.17;74.02
8653;BME280;4364;52.426;9.424;2023-06-26T03:20:57;100743.47;;;20.13;75.08
8653;BME280;4364;52.426;9.424;2023-06-26T03:23:24;100742.53;;;20.09;75.71
8653;BME280;4364;52.426;9.424;2023-06-26T03:25:51;100739.53;;;20.02;76.10
8653;BME280;4364;52.426;9.424;2023-06-26T03:28:30;100738.00;;;19.92;77.74
8653;BME280;4364;52.426;9.424;2023-06-26T03:30:57;100741.31;;;19.86;78.27
8653;BME280;4364;52.426;9.424;2023-06-26T03:33:25;100743.81;;;19.78;78.97
8653;BME280;4364;52.426;9.424;2023-06-26T03:35:52;100739.28;;;19.74;79.30
8653;BME280;4364;52.426;9.424;2023-06-26T03:38:19;100739.16;;;19.70;79.51
8653;BME280;4364;52.426;9.424;2023-06-26T03:40:46;100741.44;;;19.68;80.27
8653;BME280;4364;52.426;9.424;2023-06-26T03:43:13;100736.25;;;19.67;80.25
8653;BME280;4364;52.426;9.424;2023-06-26T03:45:50;100735.09;;;19.68;80.33
8653;BME280;4364;52.426;9.424;2023-06-26T03:48:17;100738.34;;;19.70;80.51
8653;BME280;4364;52.426;9.424;2023-06-26T03:50:44;100728.25;;;19.74;80.19
8653;BME280;4364;52.426;9.424;2023-06-26T03:53:10;100725.97;;;19.76;80.23
8653;BME280;4364;52.426;9.424;2023-06-26T03:55:39;100724.84;;;19.77;80.08
8653;BME280;4364;52.426;9.424;2023-06-26T03:58:06;100723.84;;;19.82;80.01
8653;BME280;4364;52.426;9.424;2023-06-26T04:00:33;100722.22;;;19.80;80.36
8653;BME280;4364;52.426;9.424;2023-06-26T04:02:59;100720.75;;;19.83;79.88
8653;BME280;4364;52.426;9.424;2023-06-26T04:05:29;100720.75;;;19.83;80.64
8653;BME280;4364;52.426;9.424;2023-06-26T04:07:56;100723.16;;;19.85;80.50
8653;BME280;4364;52.426;9.424;2023-06-26T04:10:22;100713.03;;;19.89;80.07
8653;BME280;4364;52.426;9.424;2023-06-26T04:12:49;100720.78;;;19.95;80.11
8653;BME280;4364;52.426;9.424;2023-06-26T04:15:15;100718.94;;;19.99;80.24
8653;BME280;4364;52.426;9.424;2023-06-26T04:17:43;100711.81;;;19.98;80.19
8653;BME280;4364;52.426;9.424;2023-06-26T04:20:09;100715.03;;;20.01;79.71
8653;BME280;4364;52.426;9.424;2023-06-26T04:22:36;100718.53;;;20.10;79.64
8653;BME280;4364;52.426;9.424;2023-06-26T04:25:03;100713.25;;;20.17;79.54
8653;BME280;4364;52.426;9.424;2023-06-26T04:27:30;100708.78;;;20.25;78.36
8653;BME280;4364;52.426;9.424;2023-06-26T04:30:03;100705.66;;;20.26;78.81
8653;BME280;4364;52.426;9.424;2023-06-26T04:32:29;100709.34;;;20.30;78.49
8653;BME280;4364;52.426;9.424;2023-06-26T04:34:56;100703.16;;;20.33;77.76
8653;BME280;4364;52.426;9.424;2023-06-26T04:37:23;100702.13;;;20.38;77.54
8653;BME280;4364;52.426;9.424;2023-06-26T04:39:50;100702.00;;;20.47;76.74
8653;BME280;4364;52.426;9.424;2023-06-26T04:42:17;100701.44;;;20.53;76.24
8653;BME280;4364;52.426;9.424;2023-06-26T04:44:45;100699.03;;;20.64;75.74
8653;BME280;4364;52.426;9.424;2023-06-26T04:47:12;100694.13;;;20.70;75.00
8653;BME280;4364;52.426;9.424;2023-06-26T04:49:41;100700.19;;;20.76;74.87
8653;BME280;4364;52.426;9.424;2023-06-26T04:52:13;100691.44;;;20.86;74.22
8653;BME280;4364;52.426;9.424;2023-06-26T04:54:39;100691.19;;;20.91;73.81
8653;BME280;4364;52.426;9.424;2023-06-26T04:57:07;100692.94;;;20.96;73.90
8653;BME280;4364;52.426;9.424;2023-06-26T04:59:35;100686.91;;;21.06;73.44
8653;BME280;4364;52.426;9.424;2023-06-26T05:02:01;100685.19;;;21.14;72.74
8653;BME280;4364;52.426;9.424;2023-06-26T05:04:28;100686.53;;;21.20;72.52
8653;BME280;4364;52.426;9.424;2023-06-26T05:06:54;100685.50;;;21.24;72.70
8653;BME280;4364;52.426;9.424;2023-06-26T05:09:21;100684.44;;;21.29;72.33
8653;BME280;4364;52.426;9.424;2023-06-26T05:11:47;100685.09;;;21.38;71.63
8653;BME280;4364;52.426;9.424;2023-06-26T05:14:14;100684.06;;;21.43;71.28
8653;BME280;4364;52.426;9.424;2023-06-26T05:16:40;100678.88;;;21.54;71.28
8653;BME280;4364;52.426;9.424;2023-06-26T05:19:07;100675.16;;;21.62;70.55
8653;BME280;4364;52.426;9.424;2023-06-26T05:21:34;100674.06;;;21.67;69.99
8653;BME280;4364;52.426;9.424;2023-06-26T05:24:05;100672.41;;;21.78;69.64
8653;BME280;4364;52.426;9.424;2023-06-26T05:26:32;100672.34;;;21.90;68.93
8653;BME280;4364;52.426;9.424;2023-06-26T05:28:59;100674.13;;;21.98;68.84
8653;BME280;4364;52.426;9.424;2023-06-26T05:31:25;100674.44;;;22.09;67.86
8653;BME280;4364;52.426;9.424;2023-06-26T05:33:53;100675.25;;;22.26;67.16
8653;BME280;4364;52.426;9.424;2023-06-26T05:36:22;100676.34;;;22.37;65.58
8653;BME280;4364;52.426;9.424;2023-06-26T05:38:50;100672.50;;;22.57;64.67
8653;BME280;4364;52.426;9.424;2023-06-26T05:41:17;100667.72;;;22.74;63.49
8653;BME280;4364;52.426;9.424;2023-06-26T05:43:44;100670.16;;;22.95;62.75
8653;BME280;4364;52.426;9.424;2023-06-26T05:46:11;100672.72;;;23.20;62.13
8653;BME280;4364;52.426;9.424;2023-06-26T05:48:37;100661.03;;;23.49;61.12
8653;BME280;4364;52.426;9.424;2023-06-26T05:51:04;100668.84;;;23.63;60.08
8653;BME280;4364;52.426;9.424;2023-06-26T05:53:31;100670.78;;;24.02;59.21
8653;BME280;4364;52.426;9.424;2023-06-26T05:55:58;100666.31;;;24.20;58.51
8653;BME280;4364;52.426;9.424;2023-06-26T05:58:26;100665.16;;;24.45;57.09
8653;BME280;4364;52.426;9.424;2023-06-26T06:00:54;100670.66;;;24.64;56.50
8653;BME280;4364;52.426;9.424;2023-06-26T06:03:20;100655.63;;;24.69;55.81
8653;BME280;4364;52.426;9.424;2023-06-26T06:05:47;100655.63;;;24.99;55.29
8653;BME280;4364;52.426;9.424;2023-06-26T06:08:13;100660.41;;;24.99;55.50
8653;BME280;4364;52.426;9.424;2023-06-26T06:10:40;100655.31;;;25.31;54.23
8653;BME280;4364;52.426;9.424;2023-06-26T06:13:07;100654.28;;;25.46;53.74
8653;BME280;4364;52.426;9.424;2023-06-26T06:15:33;100648.78;;;25.54;53.41
8653;BME280;4364;52.426;9.424;2023-06-26T06:18:00;100657.56;;;25.56;52.45
8653;BME280;4364;52.426;9.424;2023-06-26T06:20:27;100656.94;;;25.69;52.74
8653;BME280;4364;52.426;9.424;2023-06-26T06:22:53;100660.38;;;25.59;52.21
8653;BME280;4364;52.426;9.424;2023-06-26T06:25:20;100664.22;;;25.81;51.63
8653;BME280;4364;52.426;9.424;2023-06-26T06:27:46;100659.97;;;25.95;50.93
8653;BME280;4364;52.426;9.424;2023-06-26T06:30:13;100657.72;;;26.07;50.91
8653;BME280;4364;52.426;9.424;2023-06-26T06:32:39;100663.81;;;26.20;50.49
8653;BME280;4364;52.426;9.424;2023-06-26T06:35:06;100669.50;;;26.31;49.97
8653;BME280;4364;52.426;9.424;2023-06-26T06:37:37;100665.91;;;26.34;50.14
8653;BME280;4364;52.426;9.424;2023-06-26T06:40:05;100670.56;;;26.19;50.02
8653;BME280;4364;52.426;9.424;2023-06-26T06:42:32;100671.78;;;26.22;50.39
8653;BME280;4364;52.426;9.424;2023-06-26T06:45:01;100673.44;;;26.30;50.04
8653;BME280;4364;52.426;9.424;2023-06-26T06:47:27;100671.44;;;26.27;51.06
8653;BME280;4364;52.426;9.424;2023-06-26T06:49:54;100662.25;;;26.23;51.29
8653;BME280;4364;52.426;9.424;2023-06-26T06:52:20;100667.34;;;26.17;50.97
8653;BME280;4364;52.426;9.424;2023-06-26T06:54:54;100664.25;;;26.26;50.76
8653;BME280;4364;52.426;9.424;2023-06-26T06:57:21;100666.75;;;26.38;50.72
8653;BME280;4364;52.426;9.424;2023-06-26T06:59:48;100661.19;;;26.38;51.11
8653;BME280;4364;52.426;9.424;2023-06-26T07:02:17;100673.97;;;26.43;50.33
8653;BME280;4364;52.426;9.424;2023-06-26T07:04:44;100662.13;;;26.60;50.13
8653;BME280;4364;52.426;9.424;2023-06-26T07:07:11;100659.00;;;26.66;49.79
8653;BME280;4364;52.426;9.424;2023-06-26T07:09:40;100659.34;;;26.60;49.63
8653;BME280;4364;52.426;9.424;2023-06-26T07:12:06;100664.59;;;26.69;47.71
8653;BME280;4364;52.426;9.424;2023-06-26T07:14:33;100667.94;;;26.93;47.34
8653;BME280;4364;52.426;9.424;2023-06-26T07:16:59;100675.16;;;27.05;47.65
8653;BME280;4364;52.426;9.424;2023-06-26T07:19:26;100680.44;;;27.21;46.94
8653;BME280;4364;52.426;9.424;2023-06-26T07:21:53;100676.41;;;27.18;45.80
8653;BME280;4364;52.426;9.424;2023-06-26T07:24:19;100673.56;;;26.96;45.91
8653;BME280;4364;52.426;9.424;2023-06-26T07:26:46;100660.38;;;26.93;46.10
8653;BME280;4364;52.426;9.424;2023-06-26T07:29:16;100660.53;;;27.26;45.46
8653;BME280;4364;52.426;9.424;2023-06-26T07:31:42;100661.78;;;27.32;45.05
8653;BME280;4364;52.426;9.424;2023-06-26T07:34:10;100664.50;;;27.25;46.04
8653;BME280;4364;52.426;9.424;2023-06-26T07:36:37;100657.66;;;27.08;45.98
8653;BME280;4364;52.426;9.424;2023-06-26T07:39:03;100669.19;;;27.03;46.84
8653;BME280;4364;52.426;9.424;2023-06-26T07:41:30;100669.13;;;26.92;47.36
8653;BME280;4364;52.426;9.424;2023-06-26T07:43:58;100673.47;;;26.86;46.52
8653;BME280;4364;52.426;9.424;2023-06-26T07:46:25;100666.09;;;27.18;46.16
8653;BME280;4364;52.426;9.424;2023-06-26T07:48:51;100674.78;;;27.06;46.08
8653;BME280;4364;52.426;9.424;2023-06-26T07:51:18;100676.53;;;26.66;47.47
8653;BME280;4364;52.426;9.424;2023-06-26T07:53:45;100674.97;;;26.72;47.64
8653;BME280;4364;52.426;9.424;2023-06-26T07:56:11;100667.16;;;26.96;47.52
8653;BME280;4364;52.426;9.424;2023-06-26T07:58:38;100676.28;;;26.93;47.25
8653;BME280;4364;52.426;9.424;2023-06-26T08:01:05;100680.03;;;27.18;47.64
8653;BME280;4364;52.426;9.424;2023-06-26T08:03:31;100678.53;;;27.32;46.62
8653;BME280;4364;52.426;9.424;2023-06-26T08:06:01;100666.50;;;27.28;47.47
8653;BME280;4364;52.426;9.424;2023-06-26T08:08:28;100676.81;;;27.13;47.37
8653;BME280;4364;52.426;9.424;2023-06-26T08:10:54;100665.63;;;27.13;47.52
8653;BME280;4364;52.426;9.424;2023-06-26T08:13:21;100666.09;;;27.18;48.07
8653;BME280;4364;52.426;9.424;2023-06-26T08:15:47;100672.19;;;27.42;49.08
8653;BME280;4364;52.426;9.424;2023-06-26T08:18:14;100682.81;;;27.18;48.38
8653;BME280;4364;52.426;9.424;2023-06-26T08:20:40;100679.78;;;26.75;49.03
8653;BME280;4364;52.426;9.424;2023-06-26T08:23:07;100684.13;;;26.69;49.64
8653;BME280;4364;52.426;9.424;2023-06-26T08:25:33;100702.16;;;26.38;50.89
8653;BME280;4364;52.426;9.424;2023-06-26T08:28:00;100695.22;;;26.17;51.38
8653;BME280;4364;52.426;9.424;2023-06-26T08:30:26;100704.47;;;26.25;51.31
8653;BME280;4364;52.426;9.424;2023-06-26T08:32:57;100716.09;;;26.38;51.66
8653;BME280;4364;52.426;9.424;2023-06-26T08:35:24;100724.34;;;26.23;51.68
8653;BME280;4364;52.426;9.424;2023-06-26T08:37:50;100711.31;;;26.35;51.59
8653;BME280;4364;52.426;9.424;2023-06-26T08:40:17;100725.69;;;26.40;52.40
8653;BME280;4364;52.426;9.424;2023-06-26T08:42:47;100732.41;;;26.36;52.81
8653;BME280;4364;52.426;9.424;2023-06-26T08:45:13;100742.94;;;26.53;52.75
8653;BME280;4364;52.426;9.424;2023-06-26T08:47:41;100729.19;;;26.75;53.09
8653;BME280;4364;52.426;9.424;2023-06-26T08:50:10;100735.97;;;26.77;51.32
8653;BME280;4364;52.426;9.424;2023-06-26T08:52:56;100738.00;;;26.36;51.57
8653;BME280;4364;52.426;9.424;2023-06-26T08:55:26;100743.63;;;26.02;52.23
8653;BME280;4364;52.426;9.424;2023-06-26T08:57:54;100735.78;;;25.77;53.81
8653;BME280;4364;52.426;9.424;2023-06-26T09:00:20;100738.22;;;25.82;53.92
8653;BME280;4364;52.426;9.424;2023-06-26T09:02:47;100737.88;;;26.21;53.52
8653;BME280;4364;52.426;9.424;2023-06-26T09:05:14;100739.78;;;26.58;53.61
8653;BME280;4364;52.426;9.424;2023-06-26T09:07:41;100742.66;;;26.66;53.25
8653;BME280;4364;52.426;9.424;2023-06-26T09:10:08;100740.19;;;26.57;53.32
8653;BME280;4364;52.426;9.424;2023-06-26T09:12:36;100751.53;;;26.78;53.56
8653;BME280;4364;52.426;9.424;2023-06-26T09:15:04;100751.91;;;26.77;52.04
8653;BME280;4364;52.426;9.424;2023-06-26T09:17:33;100750.53;;;26.56;52.40
8653;BME280;4364;52.426;9.424;2023-06-26T09:20:04;100751.31;;;27.02;50.81
8653;BME280;4364;52.426;9.424;2023-06-26T09:22:33;100759.34;;;27.14;50.97
8653;BME280;4364;52.426;9.424;2023-06-26T09:25:03;100768.28;;;26.82;50.48
8653;BME280;4364;52.426;9.424;2023-06-26T09:27:30;100765.88;;;26.77;51.06
8653;BME280;4364;52.426;9.424;2023-06-26T09:29:57;100777.25;;;27.13;50.00
8653;BME280;4364;52.426;9.424;2023-06-26T09:32:24;100783.53;;;26.95;51.22
8653;BME280;4364;52.426;9.424;2023-06-26T09:34:54;100786.22;;;26.40;53.23
8653;BME280;4364;52.426;9.424;2023-06-26T09:37:26;100782.97;;;25.97;56.26
8653;BME280;4364;52.426;9.424;2023-06-26T09:39:53;100797.75;;;25.70;58.16
8653;BME280;4364;52.426;9.424;2023-06-26T09:42:20;100808.53;;;25.45;59.31
8653;BME280;4364;52.426;9.424;2023-06-26T09:44:47;100810.31;;;25.30;60.22
8653;BME280;4364;52.426;9.424;2023-06-26T09:47:19;100829.38;;;25.05;60.76
8653;BME280;4364;52.426;9.424;2023-06-26T09:49:47;100822.78;;;24.90;61.74
8653;BME280;4364;52.426;9.424;2023-06-26T09:52:17;100828.44;;;24.51;62.39
8653;BME280;4364;52.426;9.424;2023-06-26T09:54:44;100840.00;;;24.34;63.14
8653;BME280;4364;52.426;9.424;2023-06-26T09:57:16;100845.06;;;24.09;63.35
8653;BME280;4364;52.426;9.424;2023-06-26T09:59:44;100853.09;;;23.59;63.07
8653;BME280;4364;52.426;9.424;2023-06-26T10:02:11;100851.28;;;23.15;69.01
8653;BME280;4364;52.426;9.424;2023-06-26T10:04:39;100860.47;;;22.55;76.16
8653;BME280;4364;52.426;9.424;2023-06-26T10:07:13;100863.88;;;22.36;78.02
8653;BME280;4364;52.426;9.424;2023-06-26T10:09:44;100860.84;;;22.13;79.40
8653;BME280;4364;52.426;9.424;2023-06-26T10:13:16;100852.72;;;22.33;81.36
8653;BME280;4364;52.426;9.424;2023-06-26T10:15:46;100863.28;;;22.87;79.32
8653;BME280;4364;52.426;9.424;2023-06-26T10:18:14;100861.59;;;23.30;78.46
8653;BME280;4364;52.426;9.424;2023-06-26T10:20:47;100877.63;;;23.57;74.25
8653;BME280;4364;52.426;9.424;2023-06-26T10:23:15;100869.28;;;23.37;76.20
8653;BME280;4364;52.426;9.424;2023-06-26T10:25:45;100866.19;;;23.58;75.38
8653;BME280;4364;52.426;9.424;2023-06-26T10:28:14;100872.63;;;23.62;71.82
8653;BME280;4364;52.426;9.424;2023-06-26T10:30:44;100875.91;;;23.84;71.99
8653;BME280;4364;52.426;9.424;2023-06-26T10:33:12;100877.94;;;23.87;70.49
8653;BME280;4364;52.426;9.424;2023-06-26T10:35:43;100871.56;;;24.02;68.99
8653;BME280;4364;52.426;9.424;2023-06-26T10:38:11;100862.34;;;24.18;68.39
8653;BME280;4364;52.426;9.424;2023-06-26T10:40:42;100871.59;;;24.45;67.14
8653;BME280;4364;52.426;9.424;2023-06-26T10:43:11;100873.50;;;24.41;68.22
8653;BME280;4364;52.426;9.424;2023-06-26T10:45:54;100870.44;;;24.46;66.60
8653;BME280;4364;52.426;9.424;2023-06-26T10:48:21;100875.16;;;24.46;65.60
8653;BME280;4364;52.426;9.424;2023-06-26T10:50:49;100875.25;;;24.49;64.48
8653;BME280;4364;52.426;9.424;2023-06-26T10:56:02;100866.81;;;24.46;65.00
8653;BME280;4364;52.426;9.424;2023-06-26T11:03:37;100890.09;;;23.98;66.40
8653;BME280;4364;52.426;9.424;2023-06-26T11:06:14;100890.97;;;23.83;67.02
8653;BME280;4364;52.426;9.424;2023-06-26T11:08:47;100894.28;;;23.73;66.52
8653;BME280;4364;52.426;9.424;2023-06-26T11:11:15;100890.03;;;23.79;67.26
8653;BME280;4364;52.426;9.424;2023-06-26T11:13:44;100902.38;;;23.97;65.82
8653;BME280;4364;52.426;9.424;2023-06-26T11:16:12;100889.50;;;24.09;66.16
8653;BME280;4364;52.426;9.424;2023-06-26T11:18:39;100888.06;;;24.15;63.02
8653;BME280;4364;52.426;9.424;2023-06-26T11:21:06;100895.94;;;24.32;62.85
8653;BME280;4364;52.426;9.424;2023-06-26T11:23:36;100899.25;;;24.38;61.81
8653;BME280;4364;52.426;9.424;2023-06-26T11:26:17;100909.41;;;24.11;62.69
8653;BME280;4364;52.426;9.424;2023-06-26T11:28:51;100906.41;;;24.00;58.81
8653;BME280;4364;52.426;9.424;2023-06-26T11:31:29;100913.06;;;23.79;57.03
8653;BME280;4364;52.426;9.424;2023-06-26T11:34:00;100910.84;;;23.69;57.76
8653;BME280;4364;52.426;9.424;2023-06-26T11:36:27;100915.41;;;23.61;57.62
8653;BME280;4364;52.426;9.424;2023-06-26T11:39:00;100919.38;;;23.44;57.90
8653;BME280;4364;52.426;9.424;2023-06-26T11:41:29;100923.78;;;23.29;57.55
8653;BME280;4364;52.426;9.424;2023-06-26T11:44:03;100929.13;;;23.06;58.99
8653;BME280;4364;52.426;9.424;2023-06-26T11:46:31;100936.41;;;23.11;59.98
8653;BME280;4364;52.426;9.424;2023-06-26T11:48:58;100927.53;;;23.21;59.34
8653;BME280;4364;52.426;9.424;2023-06-26T11:51:28;100926.25;;;23.19;59.16
8653;BME280;4364;52.426;9.424;2023-06-26T11:53:55;100928.34;;;23.38;59.12
8653;BME280;4364;52.426;9.424;2023-06-26T11:56:21;100933.69;;;23.62;59.36
8653;BME280;4364;52.426;9.424;2023-06-26T11:59:02;100928.31;;;24.05;57.90
8653;BME280;4364;52.426;9.424;2023-06-26T12:01:40;100922.19;;;24.74;55.94
8653;BME280;4364;52.426;9.424;2023-06-26T12:04:09;100924.59;;;24.75;55.73
8653;BME280;4364;52.426;9.424;2023-06-26T12:06:38;100927.88;;;24.58;55.09
8653;BME280;4364;52.426;9.424;2023-06-26T12:09:08;100928.38;;;24.44;56.30
8653;BME280;4364;52.426;9.424;2023-06-26T12:11:44;100926.50;;;24.32;56.33
8653;BME280;4364;52.426;9.424;2023-06-26T12:14:11;100921.25;;;24.47;54.93
8653;BME280;4364;52.426;9.424;2023-06-26T12:16:39;100924.97;;;24.74;50.97
8653;BME280;4364;52.426;9.424;2023-06-26T12:19:06;100922.72;;;24.80;49.73
8653;BME280;4364;52.426;9.424;2023-06-26T12:24:04;100932.50;;;25.39;48.54
8653;BME280;4364;52.426;9.424;2023-06-26T12:26:31;100934.31;;;25.28;45.74
8653;BME280;4364;52.426;9.424;2023-06-26T12:29:06;100940.44;;;25.37;47.13
8653;BME280;4364;52.426;9.424;2023-06-26T12:31:34;100940.19;;;25.99;46.78
8653;BME280;4364;52.426;9.424;2023-06-26T12:34:00;100931.75;;;26.22;45.47
8653;BME280;4364;52.426;9.424;2023-06-26T12:36:27;100936.00;;;26.13;46.32
8653;BME280;4364;52.426;9.424;2023-06-26T12:38:54;100936.53;;;25.42;44.51
8653;BME280;4364;52.426;9.424;2023-06-26T12:41:24;100940.47;;;25.18;45.16
8653;BME280;4364;52.426;9.424;2023-06-26T12:43:55;100949.31;;;25.00;46.08
8653;BME280;4364;52.426;9.424;2023-06-26T12:46:33;100938.13;;;24.96;46.77
8653;BME280;4364;52.426;9.424;2023-06-26T12:49:01;100938.91;;;24.97;47.36
8653;BME280;4364;52.426;9.424;2023-06-26T12:51:37;100943.50;;;24.66;45.95
8653;BME280;4364;52.426;9.424;2023-06-26T12:54:04;100944.38;;;24.51;42.66
8653;BME280;4364;52.426;9.424;2023-06-26T12:56:30;100943.81;;;24.61;43.36
8653;BME280;4364;52.426;9.424;2023-06-26T12:58:57;100947.16;;;24.70;43.33
8653;BME280;4364;52.426;9.424;2023-06-26T13:01:24;100942.03;;;24.72;41.34
8653;BME280;4364;52.426;9.424;2023-06-26T13:03:50;100943.16;;;24.68;41.38
8653;BME280;4364;52.426;9.424;2023-06-26T13:06:20;100950.22;;;24.85;40.80
8653;BME280;4364;52.426;9.424;2023-06-26T13:08:47;100938.28;;;25.07;40.20
8653;BME280;4364;52.426;9.424;2023-06-26T13:11:13;100933.75;;;25.42;40.73
8653;BME280;4364;52.426;9.424;2023-06-26T13:13:43;100940.56;;;25.71;40.96
8653;BME280;4364;52.426;9.424;2023-06-26T13:16:14;100932.78;;;25.84;42.81
8653;BME280;4364;52.426;9.424;2023-06-26T13:18:41;100940.50;;;25.67;44.16
8653;BME280;4364;52.426;9.424;2023-06-26T13:21:08;100935.44;;;25.73;43.94
8653;BME280;4364;52.426;9.424;2023-06-26T13:23:34;100939.94;;;25.55;43.46
8653;BME280;4364;52.426;9.424;2023-06-26T13:26:01;100926.25;;;25.73;43.05
8653;BME280;4364;52.426;9.424;2023-06-26T13:28:27;100934.13;;;25.94;40.81
8653;BME280;4364;52.426;9.424;2023-06-26T13:30:54;100937.91;;;26.05;40.33